Time;durP1;ratioP1;P1;durP2;ratioP2;P2;SDS_P1;SDS_P2;PMS_P1;PMS_P2;Temp;Humidity;BMP_temperature;BMP_pressure;BME280_temperature;BME280_humidity;BME280_pressure;Samples;Min_cycle;Max_cycle;Signal;HPM_P1;HPM_P2
2024/02/19 00:00:39;;;;;;;21.77;4.45;;;;;;;;;;5051563;28;20025;-83
2024/02/19 00:03:05;;;;;;;24.00;4.15;;;;;;;;;;5051358;28;20024;-82
2024/02/19 00:05:32;;;;;;;21.35;4.72;;;;;;;;;;5051657;28;20036;-83
2024/02/19 00:07:58;;;;;;;23.15;4.60;;;;;;;;;;5051386;28;20029;-85
2024/02/19 00:10:24;;;;;;;28.90;4.93;;;;;;;;;;5051618;28;20411;-86
2024/02/19 00:12:51;;;;;;;33.90;7.88;;;;;;;;;;5051277;28;20056;-85
2024/02/19 00:15:17;;;;;;;26.92;4.85;;;;;;;;;;5051352;28;20067;-85
2024/02/19 00:17:43;;;;;;;36.38;5.50;;;;;;;;;;5051119;28;20036;-85
2024/02/19 00:20:09;;;;;;;32.33;6.25;;;;;;;;;;5050677;28;20109;-85
2024/02/19 00:22:35;;;;;;;35.92;5.18;;;;;;;;;;5051594;28;20095;-88
2024/02/19 00:25:01;;;;;;;34.08;5.07;;;;;;;;;;5051935;28;20021;-90
2024/02/19 00:27:28;;;;;;;28.55;5.53;;;;;;;;;;5051620;28;20033;-90
2024/02/19 00:29:54;;;;;;;34.47;6.00;;;;;;;;;;5052152;28;20369;-90
2024/02/19 00:32:20;;;;;;;32.10;5.15;;;;;;;;;;5052539;28;20087;-90
2024/02/19 00:34:46;;;;;;;34.00;6.20;;;;;;;;;;5052132;28;20049;-87
2024/02/19 00:37:12;;;;;;;31.65;5.07;;;;;;;;;;5051471;28;20033;-86
2024/02/19 00:39:38;;;;;;;33.00;5.82;;;;;;;;;;5051004;28;20542;-84
2024/02/19 00:42:05;;;;;;;28.52;4.63;;;;;;;;;;5051102;28;20377;-84
2024/02/19 00:44:31;;;;;;;35.60;6.22;;;;;;;;;;5050595;28;20028;-80
2024/02/19 00:46:57;;;;;;;33.03;4.72;;;;;;;;;;5050719;28;20071;-80
2024/02/19 00:49:23;;;;;;;30.80;4.57;;;;;;;;;;5050902;28;20025;-78
2024/02/19 00:51:49;;;;;;;43.97;6.93;;;;;;;;;;5050737;28;20480;-80
2024/02/19 00:54:15;;;;;;;34.50;5.85;;;;;;;;;;5050698;28;20029;-81
2024/02/19 00:56:41;;;;;;;25.83;5.60;;;;;;;;;;5050435;28;20036;-80
2024/02/19 00:59:07;;;;;;;30.75;5.88;;;;;;;;;;5051807;28;20025;-80
2024/02/19 01:01:33;;;;;;;35.72;5.35;;;;;;;;;;5050464;28;20029;-83
2024/02/19 01:03:59;;;;;;;36.45;4.63;;;;;;;;;;5050805;28;20025;-83
2024/02/19 01:06:26;;;;;;;35.00;4.82;;;;;;;;;;5050278;28;20049;-83
2024/02/19 01:08:52;;;;;;;39.85;5.97;;;;;;;;;;5051422;28;20025;-82
2024/02/19 01:11:18;;;;;;;28.58;3.97;;;;;;;;;;5050344;28;20476;-83
2024/02/19 01:13:44;;;;;;;30.15;5.13;;;;;;;;;;5050312;28;20388;-81
2024/02/19 01:16:10;;;;;;;20.80;4.00;;;;;;;;;;5050507;28;20082;-80
2024/02/19 01:18:36;;;;;;;26.52;3.92;;;;;;;;;;5050109;28;20047;-81
2024/02/19 01:21:02;;;;;;;30.95;4.88;;;;;;;;;;5050257;28;20459;-81
2024/02/19 01:23:29;;;;;;;38.08;5.75;;;;;;;;;;5050238;28;20025;-82
2024/02/19 01:25:55;;;;;;;26.88;4.78;;;;;;;;;;5050038;28;20021;-81
2024/02/19 01:28:21;;;;;;;25.70;4.07;;;;;;;;;;5051489;28;20408;-81
2024/02/19 01:30:47;;;;;;;31.42;4.70;;;;;;;;;;5050007;28;20039;-82
2024/02/19 01:33:14;;;;;;;29.13;4.43;;;;;;;;;;5054304;28;20025;-81
2024/02/19 01:35:40;;;;;;;24.13;4.70;;;;;;;;;;5053885;28;20025;-82
2024/02/19 01:38:06;;;;;;;18.08;3.53;;;;;;;;;;5055225;28;20350;-81
2024/02/19 01:40:33;;;;;;;32.72;5.88;;;;;;;;;;5055280;28;20024;-81
2024/02/19 01:43:06;;;;;;;32.17;5.50;;;;;;;;;;5056585;28;20060;-84
2024/02/19 01:45:33;;;;;;;28.80;5.47;;;;;;;;;;5054572;28;20098;-81
2024/02/19 01:47:59;;;;;;;26.33;5.25;;;;;;;;;;5054738;28;20484;-80
2024/02/19 01:50:30;;;;;;;27.40;5.07;;;;;;;;;;5055298;28;20048;-81
2024/02/19 01:52:57;;;;;;;29.65;5.93;;;;;;;;;;5053563;28;20169;-81
2024/02/19 01:55:23;;;;;;;28.02;5.45;;;;;;;;;;5055136;28;20028;-81
2024/02/19 01:57:51;;;;;;;31.83;6.70;;;;;;;;;;5054819;28;20025;-82
2024/02/19 02:00:18;;;;;;;33.85;7.07;;;;;;;;;;5053593;28;20032;-81
2024/02/19 02:02:44;;;;;;;29.02;6.65;;;;;;;;;;5053308;28;20025;-81
2024/02/19 02:05:13;;;;;;;23.70;4.40;;;;;;;;;;5054850;28;20028;-82
2024/02/19 02:07:44;;;;;;;39.60;5.93;;;;;;;;;;5052773;28;20041;-83
2024/02/19 02:10:10;;;;;;;39.22;5.55;;;;;;;;;;5053928;28;20033;-83
2024/02/19 02:12:36;;;;;;;30.30;5.07;;;;;;;;;;5054353;28;20061;-83
2024/02/19 02:15:02;;;;;;;34.83;5.60;;;;;;;;;;5057627;28;20032;-80
2024/02/19 02:17:28;;;;;;;21.98;4.35;;;;;;;;;;5057108;28;20052;-80
2024/02/19 02:19:54;;;;;;;33.33;5.60;;;;;;;;;;5053339;28;20124;-79
2024/02/19 02:22:20;;;;;;;32.17;5.43;;;;;;;;;;5053306;28;20025;-83
2024/02/19 02:24:46;;;;;;;35.13;6.00;;;;;;;;;;5054528;28;20024;-83
2024/02/19 02:27:12;;;;;;;35.53;6.05;;;;;;;;;;5053164;28;20480;-85
2024/02/19 02:29:39;;;;;;;31.52;5.20;;;;;;;;;;5052777;28;20096;-84
2024/02/19 02:32:05;;;;;;;38.38;5.35;;;;;;;;;;5053343;28;20032;-85
2024/02/19 02:34:31;;;;;;;38.20;6.10;;;;;;;;;;5053553;28;20025;-84
2024/02/19 02:36:57;;;;;;;29.00;4.25;;;;;;;;;;5053228;28;20393;-84
2024/02/19 02:39:23;;;;;;;28.20;5.65;;;;;;;;;;5053024;28;20025;-82
2024/02/19 02:41:49;;;;;;;32.40;5.32;;;;;;;;;;5052701;28;20089;-82
2024/02/19 02:44:16;;;;;;;24.80;4.45;;;;;;;;;;5052173;28;20036;-82
2024/02/19 02:46:42;;;;;;;28.13;4.68;;;;;;;;;;5052587;28;20029;-85
2024/02/19 02:49:08;;;;;;;36.70;4.72;;;;;;;;;;5053188;28;20461;-82
2024/02/19 02:51:34;;;;;;;39.85;6.35;;;;;;;;;;5053001;28;20040;-83
2024/02/19 02:54:00;;;;;;;47.38;8.27;;;;;;;;;;5052705;28;20111;-85
2024/02/19 02:56:27;;;;;;;36.58;7.03;;;;;;;;;;5052766;28;20037;-84
2024/02/19 02:58:53;;;;;;;38.08;6.68;;;;;;;;;;5052528;28;20028;-84
2024/02/19 03:01:27;;;;;;;31.50;5.82;;;;;;;;;;5052607;28;20508;-83
2024/02/19 03:03:53;;;;;;;29.38;6.28;;;;;;;;;;5052817;28;20024;-86
2024/02/19 03:06:19;;;;;;;27.60;5.75;;;;;;;;;;5052476;28;20048;-85
2024/02/19 03:08:45;;;;;;;49.22;8.65;;;;;;;;;;5053499;28;20021;-85
2024/02/19 03:11:12;;;;;;;31.08;6.28;;;;;;;;;;5052437;28;20021;-84
2024/02/19 03:13:38;;;;;;;47.05;10.90;;;;;;;;;;5052338;28;20025;-80
2024/02/19 03:16:07;;;;;;;34.50;7.47;;;;;;;;;;5052329;28;20029;-81
2024/02/19 03:18:33;;;;;;;37.72;8.57;;;;;;;;;;5053556;28;20029;-81
2024/02/19 03:21:00;;;;;;;39.30;8.73;;;;;;;;;;5051896;28;20079;-81
2024/02/19 03:23:26;;;;;;;43.13;8.60;;;;;;;;;;5052145;28;20068;-83
2024/02/19 03:25:52;;;;;;;34.28;9.32;;;;;;;;;;5051750;28;20411;-82
2024/02/19 03:28:18;;;;;;;39.55;8.20;;;;;;;;;;5051904;28;20060;-81
2024/02/19 03:30:44;;;;;;;42.13;9.52;;;;;;;;;;5051670;28;20028;-81
2024/02/19 03:33:11;;;;;;;51.28;10.88;;;;;;;;;;5051951;28;20025;-80
2024/02/19 03:35:37;;;;;;;55.30;11.55;;;;;;;;;;5052009;28;20027;-81
2024/02/19 03:38:03;;;;;;;43.50;7.40;;;;;;;;;;5051640;28;20025;-81
2024/02/19 03:40:29;;;;;;;37.33;8.93;;;;;;;;;;5051771;28;20025;-81
2024/02/19 03:42:55;;;;;;;35.03;8.23;;;;;;;;;;5051469;28;20079;-82
2024/02/19 03:45:21;;;;;;;44.85;12.20;;;;;;;;;;5051780;28;20027;-84
2024/02/19 03:47:47;;;;;;;51.17;11.27;;;;;;;;;;5051423;28;20041;-81
2024/02/19 03:50:14;;;;;;;45.90;11.70;;;;;;;;;;5052926;28;20029;-79
2024/02/19 03:52:40;;;;;;;45.35;9.05;;;;;;;;;;5051508;28;20107;-80
2024/02/19 03:55:06;;;;;;;40.25;8.70;;;;;;;;;;5051341;28;20542;-80
2024/02/19 03:57:32;;;;;;;44.65;10.02;;;;;;;;;;5051482;28;20029;-80
2024/02/19 03:59:58;;;;;;;43.38;10.18;;;;;;;;;;5050879;28;20029;-79
2024/02/19 04:02:24;;;;;;;43.53;8.63;;;;;;;;;;5052690;28;20025;-78
2024/02/19 04:04:50;;;;;;;55.45;13.02;;;;;;;;;;5052092;28;20067;-78
2024/02/19 04:07:16;;;;;;;43.20;8.68;;;;;;;;;;5051175;28;20045;-81
2024/02/19 04:09:42;;;;;;;30.35;7.93;;;;;;;;;;5051082;28;20051;-82
2024/02/19 04:12:09;;;;;;;43.78;7.63;;;;;;;;;;5051420;28;20064;-84
2024/02/19 04:14:35;;;;;;;38.53;7.65;;;;;;;;;;5051434;28;20032;-84
2024/02/19 04:17:01;;;;;;;41.63;9.32;;;;;;;;;;5051029;28;20158;-82
2024/02/19 04:19:28;;;;;;;45.35;10.00;;;;;;;;;;5051179;28;20036;-81
2024/02/19 04:21:55;;;;;;;40.22;7.40;;;;;;;;;;5051094;28;20025;-82
2024/02/19 04:24:21;;;;;;;37.85;7.90;;;;;;;;;;5051519;28;20021;-85
2024/02/19 04:26:47;;;;;;;34.65;8.30;;;;;;;;;;5052199;28;20029;-82
2024/02/19 04:29:13;;;;;;;43.50;9.40;;;;;;;;;;5052597;28;20021;-82
2024/02/19 04:31:41;;;;;;;27.23;6.32;;;;;;;;;;5060891;28;20051;-82
2024/02/19 04:34:07;;;;;;;41.03;8.20;;;;;;;;;;5070123;28;20100;-82
2024/02/19 04:36:33;;;;;;;36.78;8.65;;;;;;;;;;5064359;28;20029;-82
2024/02/19 04:38:59;;;;;;;36.28;5.88;;;;;;;;;;5052261;28;20029;-80
2024/02/19 04:41:25;;;;;;;41.65;8.95;;;;;;;;;;5051159;28;20060;-83
2024/02/19 04:43:51;;;;;;;38.45;9.63;;;;;;;;;;5050664;28;20025;-82
2024/02/19 04:46:17;;;;;;;37.83;7.18;;;;;;;;;;5050886;28;20075;-81
2024/02/19 04:48:44;;;;;;;31.20;6.57;;;;;;;;;;5050799;28;20028;-81
2024/02/19 04:51:10;;;;;;;37.00;8.70;;;;;;;;;;5052142;28;20075;-82
2024/02/19 04:53:36;;;;;;;30.70;7.32;;;;;;;;;;5050843;28;20128;-84
2024/02/19 04:56:02;;;;;;;44.63;6.95;;;;;;;;;;5050568;28;20116;-81
2024/02/19 04:58:28;;;;;;;36.53;7.25;;;;;;;;;;5050444;28;20021;-81
2024/02/19 05:00:54;;;;;;;21.90;6.13;;;;;;;;;;5052321;28;20063;-83
2024/02/19 05:03:20;;;;;;;35.67;5.78;;;;;;;;;;5050752;28;20116;-81
2024/02/19 05:05:46;;;;;;;28.27;5.57;;;;;;;;;;5050275;28;20073;-82
2024/02/19 05:08:12;;;;;;;36.20;5.70;;;;;;;;;;5054844;28;20029;-81
2024/02/19 05:10:41;;;;;;;27.45;4.97;;;;;;;;;;5056108;28;20020;-81
2024/02/19 05:13:07;;;;;;;24.83;4.78;;;;;;;;;;5054263;28;20072;-82
2024/02/19 05:15:33;;;;;;;29.23;5.82;;;;;;;;;;5054350;28;20021;-81
2024/02/19 05:17:59;;;;;;;31.50;6.30;;;;;;;;;;5053994;28;20072;-81
2024/02/19 05:20:25;;;;;;;38.13;5.88;;;;;;;;;;5054210;28;20025;-81
2024/02/19 05:22:51;;;;;;;25.85;4.72;;;;;;;;;;5055233;28;20070;-81
2024/02/19 05:25:20;;;;;;;40.63;6.13;;;;;;;;;;5055391;28;20385;-81
2024/02/19 05:27:46;;;;;;;21.63;4.43;;;;;;;;;;5055191;28;20350;-84
2024/02/19 05:30:13;;;;;;;33.42;5.78;;;;;;;;;;5056561;28;20468;-84
2024/02/19 05:32:39;;;;;;;39.53;7.57;;;;;;;;;;5055517;28;20021;-83
2024/02/19 05:35:05;;;;;;;31.30;5.53;;;;;;;;;;5054950;28;20500;-82
2024/02/19 05:37:32;;;;;;;36.15;7.65;;;;;;;;;;5055328;28;20070;-80
2024/02/19 05:39:58;;;;;;;30.85;7.25;;;;;;;;;;5053678;28;20024;-80
2024/02/19 05:42:24;;;;;;;35.85;8.18;;;;;;;;;;5053796;28;20029;-82
2024/02/19 05:44:50;;;;;;;34.40;8.90;;;;;;;;;;5054926;28;20017;-81
2024/02/19 05:47:16;;;;;;;27.38;7.38;;;;;;;;;;5053775;28;20037;-81
2024/02/19 05:49:42;;;;;;;39.30;9.55;;;;;;;;;;5053936;28;20021;-81
2024/02/19 05:52:08;;;;;;;33.58;7.60;;;;;;;;;;5053560;28;20032;-81
2024/02/19 05:54:34;;;;;;;27.65;6.55;;;;;;;;;;5053874;28;20029;-82
2024/02/19 05:57:00;;;;;;;31.48;7.95;;;;;;;;;;5053731;28;20044;-83
2024/02/19 05:59:27;;;;;;;24.98;7.43;;;;;;;;;;5054094;28;20036;-84
2024/02/19 06:01:53;;;;;;;31.45;6.28;;;;;;;;;;5054163;28;20118;-84
2024/02/19 06:04:20;;;;;;;34.13;7.18;;;;;;;;;;5053829;28;20060;-83
2024/02/19 06:06:46;;;;;;;30.33;6.68;;;;;;;;;;5055388;28;20138;-83
2024/02/19 06:09:12;;;;;;;28.02;6.72;;;;;;;;;;5053680;28;20099;-81
2024/02/19 06:11:44;;;;;;;28.80;7.20;;;;;;;;;;5053431;28;20036;-81
2024/02/19 06:14:10;;;;;;;25.05;6.10;;;;;;;;;;5054626;28;20057;-82
2024/02/19 06:16:36;;;;;;;41.42;8.32;;;;;;;;;;5053400;28;20419;-81
2024/02/19 06:19:02;;;;;;;34.55;8.15;;;;;;;;;;5051958;28;20044;-79
2024/02/19 06:21:28;;;;;;;26.92;7.07;;;;;;;;;;5054687;28;20021;-82
2024/02/19 06:23:54;;;;;;;33.25;7.47;;;;;;;;;;5052892;28;20028;-82
2024/02/19 06:26:21;;;;;;;30.60;7.50;;;;;;;;;;5053148;28;20021;-80
2024/02/19 06:28:47;;;;;;;33.33;8.18;;;;;;;;;;5053208;28;20021;-79
2024/02/19 06:31:13;;;;;;;32.60;7.60;;;;;;;;;;5052896;28;20021;-81
2024/02/19 06:33:39;;;;;;;35.15;8.43;;;;;;;;;;5053553;28;20061;-81
2024/02/19 06:36:05;;;;;;;40.20;8.15;;;;;;;;;;5052813;28;20025;-79
2024/02/19 06:38:31;;;;;;;25.95;8.52;;;;;;;;;;5052709;28;20025;-80
2024/02/19 06:40:57;;;;;;;30.33;9.95;;;;;;;;;;5052532;28;20033;-79
2024/02/19 06:43:23;;;;;;;37.72;9.63;;;;;;;;;;5053364;28;20024;-81
2024/02/19 06:45:49;;;;;;;29.13;8.35;;;;;;;;;;5053717;28;20040;-80
2024/02/19 06:48:15;;;;;;;31.90;9.13;;;;;;;;;;5053171;28;20029;-79
2024/02/19 06:50:41;;;;;;;36.72;9.60;;;;;;;;;;5053370;28;20025;-81
2024/02/19 06:53:08;;;;;;;37.78;9.15;;;;;;;;;;5052866;28;20033;-78
2024/02/19 06:55:34;;;;;;;25.45;7.60;;;;;;;;;;5053725;28;20044;-81
2024/02/19 06:58:00;;;;;;;32.08;9.77;;;;;;;;;;5053840;28;20045;-83
2024/02/19 07:00:26;;;;;;;39.88;9.68;;;;;;;;;;5052784;28;20075;-83
2024/02/19 07:02:52;;;;;;;33.80;9.68;;;;;;;;;;5052636;28;20116;-83
2024/02/19 07:05:19;;;;;;;40.85;10.85;;;;;;;;;;5052404;28;20071;-82
2024/02/19 07:07:45;;;;;;;32.20;8.30;;;;;;;;;;5052548;28;20121;-85
2024/02/19 07:10:11;;;;;;;31.60;8.07;;;;;;;;;;5052589;28;20355;-85
2024/02/19 07:12:38;;;;;;;29.65;9.20;;;;;;;;;;5053074;28;20116;-85
2024/02/19 07:15:05;;;;;;;28.45;8.75;;;;;;;;;;5052606;28;20025;-84
2024/02/19 07:17:31;;;;;;;32.85;8.43;;;;;;;;;;5070166;28;20173;-83
2024/02/19 07:19:58;;;;;;;37.58;8.55;;;;;;;;;;5072136;28;20054;-82
2024/02/19 07:22:24;;;;;;;31.92;8.75;;;;;;;;;;5072213;28;20414;-83
2024/02/19 07:24:50;;;;;;;24.13;6.82;;;;;;;;;;5072347;28;20353;-81
2024/02/19 07:27:16;;;;;;;33.80;7.90;;;;;;;;;;5073498;28;20161;-82
2024/02/19 07:29:42;;;;;;;32.75;8.27;;;;;;;;;;5071842;28;20077;-83
2024/02/19 07:32:08;;;;;;;27.13;7.68;;;;;;;;;;5072205;28;20052;-84
2024/02/19 07:34:35;;;;;;;37.72;7.32;;;;;;;;;;5072065;28;20031;-84
2024/02/19 07:37:01;;;;;;;35.15;9.52;;;;;;;;;;5071599;28;20027;-83
2024/02/19 07:39:27;;;;;;;36.92;8.90;;;;;;;;;;5071745;28;20035;-82
2024/02/19 07:41:53;;;;;;;51.58;13.82;;;;;;;;;;5071605;28;20024;-82
2024/02/19 07:44:22;;;;;;;29.40;7.18;;;;;;;;;;5072564;28;20045;-82
2024/02/19 07:46:48;;;;;;;42.63;13.37;;;;;;;;;;5071542;28;20561;-82
2024/02/19 07:49:14;;;;;;;43.40;11.70;;;;;;;;;;5071485;28;20025;-82
2024/02/19 07:51:40;;;;;;;50.50;15.75;;;;;;;;;;5071495;28;20029;-81
2024/02/19 07:54:06;;;;;;;33.63;10.02;;;;;;;;;;5071376;28;20020;-82
2024/02/19 07:56:32;;;;;;;25.45;9.20;;;;;;;;;;5071600;28;20017;-82
2024/02/19 07:58:58;;;;;;;39.95;11.15;;;;;;;;;;5071636;28;20115;-82
2024/02/19 08:01:24;;;;;;;38.45;10.90;;;;;;;;;;5071532;28;20491;-82
2024/02/19 08:03:51;;;;;;;28.40;7.50;;;;;;;;;;5071401;28;20029;-82
2024/02/19 08:06:17;;;;;;;28.83;7.80;;;;;;;;;;5070701;28;20512;-79
2024/02/19 08:08:44;;;;;;;29.60;6.63;;;;;;;;;;5071558;28;20096;-81
2024/02/19 08:11:10;;;;;;;33.15;9.57;;;;;;;;;;5070928;28;20033;-81
2024/02/19 08:13:36;;;;;;;23.00;6.00;;;;;;;;;;5071323;28;20020;-81
2024/02/19 08:16:02;;;;;;;21.63;5.90;;;;;;;;;;5070665;28;20031;-81
2024/02/19 08:18:28;;;;;;;23.35;5.40;;;;;;;;;;5070920;28;20021;-81
2024/02/19 08:20:54;;;;;;;24.60;6.60;;;;;;;;;;5071258;28;20531;-80
2024/02/19 08:23:20;;;;;;;14.73;3.88;;;;;;;;;;5070913;28;20067;-81
2024/02/19 08:25:47;;;;;;;27.65;7.15;;;;;;;;;;5071284;28;20020;-80
2024/02/19 08:28:13;;;;;;;16.55;4.00;;;;;;;;;;5070788;28;20029;-80
2024/02/19 08:30:39;;;;;;;26.40;7.32;;;;;;;;;;5070903;28;20474;-80
2024/02/19 08:33:06;;;;;;;25.95;6.72;;;;;;;;;;5070867;28;20028;-81
2024/02/19 08:35:32;;;;;;;18.30;5.97;;;;;;;;;;5070977;28;20020;-80
2024/02/19 08:37:59;;;;;;;23.38;7.35;;;;;;;;;;5072055;28;20111;-80
2024/02/19 08:40:25;;;;;;;20.33;5.40;;;;;;;;;;5070375;28;20464;-80
2024/02/19 08:42:51;;;;;;;20.02;5.85;;;;;;;;;;5071693;28;20423;-80
2024/02/19 08:45:17;;;;;;;21.23;6.57;;;;;;;;;;5071619;28;20056;-79
2024/02/19 08:47:43;;;;;;;20.77;5.88;;;;;;;;;;5070439;28;20465;-80
2024/02/19 08:50:09;;;;;;;26.65;7.82;;;;;;;;;;5070140;28;20036;-80
2024/02/19 08:52:35;;;;;;;19.65;6.65;;;;;;;;;;5071986;28;20415;-80
2024/02/19 08:55:01;;;;;;;20.42;6.88;;;;;;;;;;5070147;28;20021;-80
2024/02/19 08:57:27;;;;;;;24.15;6.68;;;;;;;;;;5070676;28;20090;-79
2024/02/19 08:59:54;;;;;;;21.52;6.60;;;;;;;;;;5070706;28;20461;-80
2024/02/19 09:02:21;;;;;;;15.32;6.45;;;;;;;;;;5070564;28;20024;-79
2024/02/19 09:04:48;;;;;;;28.33;8.63;;;;;;;;;;5072116;28;20098;-80
2024/02/19 09:07:15;;;;;;;19.85;6.28;;;;;;;;;;5070343;28;20048;-79
2024/02/19 09:09:44;;;;;;;21.70;7.15;;;;;;;;;;5070712;28;20153;-79
2024/02/19 09:12:11;;;;;;;22.00;6.40;;;;;;;;;;5070425;28;20050;-80
2024/02/19 09:14:37;;;;;;;21.38;5.32;;;;;;;;;;5070583;28;20032;-80
2024/02/19 09:17:03;;;;;;;17.50;5.97;;;;;;;;;;5070387;28;20127;-81
2024/02/19 09:19:31;;;;;;;26.38;7.75;;;;;;;;;;5070458;28;20070;-80
2024/02/19 09:21:57;;;;;;;23.95;7.65;;;;;;;;;;5070596;28;20633;-80
2024/02/19 09:24:24;;;;;;;26.10;6.90;;;;;;;;;;5070387;28;20032;-80
2024/02/19 09:26:50;;;;;;;21.38;6.85;;;;;;;;;;5070467;28;20489;-79
2024/02/19 09:29:17;;;;;;;24.90;9.27;;;;;;;;;;5070305;28;20460;-80
2024/02/19 09:31:43;;;;;;;38.20;12.15;;;;;;;;;;5071650;28;20021;-80
2024/02/19 09:34:09;;;;;;;33.08;10.68;;;;;;;;;;5070101;28;20033;-79
2024/02/19 09:36:35;;;;;;;31.90;10.02;;;;;;;;;;5070323;28;20056;-80
2024/02/19 09:39:01;;;;;;;31.10;10.23;;;;;;;;;;5071259;28;20024;-81
2024/02/19 09:41:29;;;;;;;25.33;8.77;;;;;;;;;;5070325;28;20534;-80
2024/02/19 09:43:55;;;;;;;30.08;8.75;;;;;;;;;;5070406;28;20079;-80
2024/02/19 09:46:22;;;;;;;22.77;7.07;;;;;;;;;;5069907;28;20029;-79
2024/02/19 09:48:55;;;;;;;24.65;8.20;;;;;;;;;;5070261;28;20487;-80
2024/02/19 09:51:23;;;;;;;21.23;6.47;;;;;;;;;;5071278;28;20105;-80
2024/02/19 09:53:52;;;;;;;21.65;7.07;;;;;;;;;;5074525;28;20020;-80
2024/02/19 09:56:28;;;;;;;17.50;6.40;;;;;;;;;;5073718;28;20511;-80
2024/02/19 09:58:55;;;;;;;17.85;5.78;;;;;;;;;;5073851;28;20025;-80
2024/02/19 10:01:21;;;;;;;22.17;7.68;;;;;;;;;;5073514;28;20024;-79
2024/02/19 10:03:47;;;;;;;23.63;7.43;;;;;;;;;;5073664;28;20035;-80
2024/02/19 10:06:13;;;;;;;16.85;6.88;;;;;;;;;;5073208;28;20041;-79
2024/02/19 10:08:39;;;;;;;17.65;7.70;;;;;;;;;;5073442;28;20035;-80
2024/02/19 10:11:09;;;;;;;19.30;6.68;;;;;;;;;;5073253;28;20140;-80
2024/02/19 10:13:41;;;;;;;20.90;6.93;;;;;;;;;;5073537;28;20034;-81
2024/02/19 10:16:08;;;;;;;19.20;6.85;;;;;;;;;;5074563;28;20017;-80
2024/02/19 10:18:34;;;;;;;22.65;8.15;;;;;;;;;;5074637;28;20028;-79
2024/02/19 10:21:00;;;;;;;19.25;8.30;;;;;;;;;;5073259;28;20020;-80
2024/02/19 10:23:27;;;;;;;18.63;7.45;;;;;;;;;;5072914;28;20111;-80
2024/02/19 10:25:55;;;;;;;21.20;7.55;;;;;;;;;;5072820;28;20122;-80
2024/02/19 10:28:22;;;;;;;22.63;7.20;;;;;;;;;;5072518;28;20032;-80
2024/02/19 10:30:48;;;;;;;19.63;7.43;;;;;;;;;;5074261;28;20020;-80
2024/02/19 10:33:15;;;;;;;24.35;10.02;;;;;;;;;;5072838;28;20119;-80
2024/02/19 10:35:41;;;;;;;22.98;9.15;;;;;;;;;;5073034;28;20415;-81
2024/02/19 10:38:08;;;;;;;30.83;9.93;;;;;;;;;;5072680;28;20027;-81
2024/02/19 10:40:35;;;;;;;25.00;8.40;;;;;;;;;;5073992;28;20025;-80
2024/02/19 10:43:01;;;;;;;25.45;10.23;;;;;;;;;;5074500;28;20055;-80
2024/02/19 10:45:28;;;;;;;27.52;11.57;;;;;;;;;;5072699;28;20061;-78
2024/02/19 10:47:55;;;;;;;19.83;8.43;;;;;;;;;;5072760;28;20024;-81
2024/02/19 10:50:21;;;;;;;25.65;10.20;;;;;;;;;;5072541;28;20454;-80
2024/02/19 10:52:48;;;;;;;21.42;7.80;;;;;;;;;;5072752;28;20031;-81
2024/02/19 10:55:15;;;;;;;23.52;8.80;;;;;;;;;;5072216;28;20115;-80
2024/02/19 10:57:59;;;;;;;30.50;10.57;;;;;;;;;;5072785;28;20029;-81
2024/02/19 11:00:26;;;;;;;26.77;9.85;;;;;;;;;;5072400;28;20037;-80
2024/02/19 11:03:05;;;;;;;28.23;8.75;;;;;;;;;;5072485;28;20112;-80
2024/02/19 11:05:34;;;;;;;20.80;9.35;;;;;;;;;;5071572;28;20024;-81
2024/02/19 11:08:04;;;;;;;16.73;6.93;;;;;;;;;;5072475;28;20032;-79
2024/02/19 11:10:47;;;;;;;24.65;10.95;;;;;;;;;;5073322;28;20028;-80
2024/02/19 11:13:14;;;;;;;27.92;11.60;;;;;;;;;;5072134;28;20431;-80
2024/02/19 11:15:43;;;;;;;22.83;8.77;;;;;;;;;;5072254;28;20353;-79
2024/02/19 11:18:19;;;;;;;28.37;9.30;;;;;;;;;;5072026;28;20036;-79
2024/02/19 11:20:46;;;;;;;22.40;10.38;;;;;;;;;;5072309;28;20031;-79
2024/02/19 11:23:14;;;;;;;32.67;11.07;;;;;;;;;;5072960;28;20377;-79
2024/02/19 11:25:40;;;;;;;37.85;9.98;;;;;;;;;;5071946;28;20016;-79
2024/02/19 11:28:07;;;;;;;28.33;10.43;;;;;;;;;;5071956;28;20059;-79
2024/02/19 11:30:33;;;;;;;23.33;9.25;;;;;;;;;;5072906;28;20025;-79
2024/02/19 11:33:03;;;;;;;22.20;9.35;;;;;;;;;;5071761;28;20020;-79
2024/02/19 11:35:29;;;;;;;;;;;;;;;;;;5072117;28;20419;-80
2024/02/19 11:37:55;;;;;;;19.67;9.50;;;;;;;;;;5073297;28;19904;-81
2024/02/19 11:40:21;;;;;;;30.38;10.82;;;;;;;;;;5071503;28;20021;-80
2024/02/19 11:42:48;;;;;;;26.67;11.43;;;;;;;;;;5071791;28;20054;-80
2024/02/19 11:45:15;;;;;;;22.35;9.70;;;;;;;;;;5071441;28;20027;-79
2024/02/19 11:47:42;;;;;;;26.42;10.18;;;;;;;;;;5073010;28;20082;-80
2024/02/19 11:50:16;;;;;;;19.23;7.18;;;;;;;;;;5071523;28;20123;-79
2024/02/19 11:52:43;;;;;;;23.85;8.15;;;;;;;;;;5071577;28;20031;-80
2024/02/19 11:55:18;;;;;;;28.77;10.75;;;;;;;;;;5073012;28;20050;-80
2024/02/19 11:57:45;;;;;;;19.83;7.40;;;;;;;;;;5071445;28;20039;-80
2024/02/19 12:00:13;;;;;;;26.60;8.98;;;;;;;;;;5071688;28;20028;-80
2024/02/19 12:02:43;;;;;;;23.70;8.93;;;;;;;;;;5072701;28;20021;-79
2024/02/19 12:05:10;;;;;;;30.23;9.27;;;;;;;;;;5071705;28;20020;-79
2024/02/19 12:07:38;;;;;;;19.65;7.60;;;;;;;;;;5071097;28;20106;-80
2024/02/19 12:10:05;;;;;;;23.98;8.88;;;;;;;;;;5071524;28;20032;-80
2024/02/19 12:12:32;;;;;;;23.15;9.60;;;;;;;;;;5072145;28;20039;-80
2024/02/19 12:14:59;;;;;;;21.42;8.15;;;;;;;;;;5072308;28;20155;-81
2024/02/19 12:17:25;;;;;;;24.35;8.15;;;;;;;;;;5070803;28;20025;-81
2024/02/19 12:19:53;;;;;;;23.10;8.15;;;;;;;;;;5070944;28;20025;-81
2024/02/19 12:22:19;;;;;;;23.58;7.80;;;;;;;;;;5071983;28;20020;-80
2024/02/19 12:24:45;;;;;;;22.55;7.80;;;;;;;;;;5070884;28;20492;-79
2024/02/19 12:27:11;;;;;;;26.55;8.23;;;;;;;;;;5070469;28;20411;-81
2024/02/19 12:29:37;;;;;;;22.23;7.05;;;;;;;;;;5072041;28;20016;-80
2024/02/19 12:32:03;;;;;;;15.93;6.43;;;;;;;;;;5070742;28;20016;-81
2024/02/19 12:34:29;;;;;;;21.45;7.25;;;;;;;;;;5070475;28;20379;-80
2024/02/19 12:36:55;;;;;;;17.98;6.93;;;;;;;;;;5071987;28;20052;-81
2024/02/19 12:39:23;;;;;;;17.30;6.18;;;;;;;;;;5070577;28;20055;-80
2024/02/19 12:41:49;;;;;;;22.60;7.18;;;;;;;;;;5070970;28;20091;-80
2024/02/19 12:44:15;;;;;;;24.20;7.47;;;;;;;;;;5071771;28;20024;-79
2024/02/19 12:46:41;;;;;;;18.40;6.82;;;;;;;;;;5072029;28;20527;-80
2024/02/19 12:49:08;;;;;;;21.52;6.90;;;;;;;;;;5070870;28;20055;-80
2024/02/19 12:51:35;;;;;;;21.35;9.90;;;;;;;;;;5070547;28;20021;-80
2024/02/19 12:54:02;;;;;;;23.40;7.85;;;;;;;;;;5070748;28;20423;-79
2024/02/19 12:56:28;;;;;;;17.38;7.20;;;;;;;;;;5070522;28;20371;-82
2024/02/19 12:58:54;;;;;;;20.33;8.07;;;;;;;;;;5071826;28;20357;-81
2024/02/19 13:01:20;;;;;;;26.90;8.00;;;;;;;;;;5070485;28;20077;-81
2024/02/19 13:03:48;;;;;;;27.17;7.93;;;;;;;;;;5071991;28;20059;-80
2024/02/19 13:06:14;;;;;;;22.67;8.27;;;;;;;;;;5070183;28;20130;-81
2024/02/19 13:08:44;;;;;;;18.98;8.48;;;;;;;;;;5070754;28;20024;-80
2024/02/19 13:11:10;;;;;;;22.57;8.20;;;;;;;;;;5071948;28;20465;-81
2024/02/19 13:13:36;;;;;;;22.23;9.13;;;;;;;;;;5070077;28;20271;-81
2024/02/19 13:16:02;;;;;;;18.02;9.70;;;;;;;;;;5070538;28;20028;-81
2024/02/19 13:18:30;;;;;;;16.73;9.10;;;;;;;;;;5071787;28;20496;-80
2024/02/19 13:20:56;;;;;;;19.15;7.65;;;;;;;;;;5071491;28;20380;-79
2024/02/19 13:23:22;;;;;;;19.52;11.10;;;;;;;;;;5069945;28;20017;-80
2024/02/19 13:25:48;;;;;;;19.38;9.60;;;;;;;;;;5070395;28;20032;-81
2024/02/19 13:28:14;;;;;;;20.85;13.02;;;;;;;;;;5072203;28;20071;-80
2024/02/19 13:30:40;;;;;;;22.15;13.40;;;;;;;;;;5057395;28;20128;-80
2024/02/19 13:33:07;;;;;;;21.65;12.10;;;;;;;;;;5074232;28;20024;-80
2024/02/19 13:35:34;;;;;;;24.55;12.68;;;;;;;;;;5073613;28;20029;-79
2024/02/19 13:38:02;;;;;;;22.95;13.32;;;;;;;;;;5075289;28;20024;-79
2024/02/19 13:40:29;;;;;;;27.75;14.35;;;;;;;;;;5073649;28;20495;-78
2024/02/19 13:42:55;;;;;;;24.52;12.30;;;;;;;;;;5075244;28;20032;-80
2024/02/19 13:45:25;;;;;;;27.67;13.57;;;;;;;;;;5073568;28;20024;-80
2024/02/19 13:48:00;;;;;;;19.38;10.60;;;;;;;;;;5073869;28;20111;-80
2024/02/19 13:50:26;;;;;;;22.17;11.15;;;;;;;;;;5073746;28;20426;-80
2024/02/19 13:52:52;;;;;;;29.90;17.30;;;;;;;;;;5073810;28;20051;-81
2024/02/19 13:55:18;;;;;;;35.45;20.85;;;;;;;;;;5073701;28;20017;-80
2024/02/19 13:57:45;;;;;;;28.25;16.48;;;;;;;;;;5073760;28;20082;-80
2024/02/19 14:00:11;;;;;;;23.42;13.82;;;;;;;;;;5075123;28;20017;-79
2024/02/19 14:02:37;;;;;;;33.63;16.85;;;;;;;;;;5073432;28;20052;-80
2024/02/19 14:05:04;;;;;;;25.73;12.55;;;;;;;;;;5073349;28;20356;-79
2024/02/19 14:07:30;;;;;;;30.30;12.25;;;;;;;;;;5072777;28;20059;-79
2024/02/19 14:09:56;;;;;;;21.60;8.95;;;;;;;;;;5074809;28;20016;-79
2024/02/19 14:12:22;;;;;;;19.55;9.20;;;;;;;;;;5073822;28;20043;-80
2024/02/19 14:14:48;;;;;;;17.23;8.10;;;;;;;;;;5074985;28;20028;-80
2024/02/19 14:17:14;;;;;;;20.75;6.88;;;;;;;;;;5073541;28;20029;-80
2024/02/19 14:19:40;;;;;;;19.48;8.63;;;;;;;;;;5073367;28;20032;-80
2024/02/19 14:22:06;;;;;;;17.75;8.63;;;;;;;;;;5073427;28;20032;-80
2024/02/19 14:24:32;;;;;;;19.17;8.82;;;;;;;;;;5073009;28;20463;-80